createdAt,value
2022-10-18T00:01:11.780Z,7.18
2022-10-18T00:06:15.963Z,6.88
2022-10-18T00:08:44.272Z,7.32
2022-10-18T00:11:12.745Z,7.25
2022-10-18T00:13:41.150Z,8.00
2022-10-18T00:16:12.804Z,8.35
2022-10-18T00:18:41.396Z,8.15
2022-10-18T00:21:11.133Z,8.55
2022-10-18T00:23:41.092Z,7.95
2022-10-18T00:26:10.031Z,7.78
2022-10-18T00:28:39.033Z,8.13
2022-10-18T00:31:11.581Z,7.72
2022-10-18T00:33:40.202Z,7.97
2022-10-18T00:36:08.657Z,7.43
2022-10-18T00:38:37.082Z,8.13
2022-10-18T00:41:07.398Z,8.02
2022-10-18T00:43:50.879Z,7.95
2022-10-18T00:46:19.182Z,8.32
2022-10-18T00:48:47.642Z,7.78
2022-10-18T00:51:16.925Z,7.57
2022-10-18T00:53:45.453Z,7.35
2022-10-18T00:56:15.665Z,7.60
2022-10-18T00:58:44.388Z,7.70
2022-10-18T01:01:12.715Z,7.93
2022-10-18T01:03:42.009Z,8.13
2022-10-18T01:06:10.585Z,7.75
2022-10-18T01:08:53.036Z,7.30
2022-10-18T01:11:32.285Z,8.52
2022-10-18T01:14:05.418Z,8.10
2022-10-18T01:16:37.558Z,7.90
2022-10-18T01:19:18.105Z,7.30
2022-10-18T01:21:48.356Z,7.38
2022-10-18T01:24:35.473Z,7.25
2022-10-18T01:27:29.348Z,7.53
2022-10-18T01:30:09.358Z,7.60
2022-10-18T01:32:40.982Z,7.30
2022-10-18T01:35:10.617Z,8.00
2022-10-18T01:37:39.410Z,7.05
2022-10-18T01:40:08.896Z,7.93
2022-10-18T01:42:37.203Z,7.22
2022-10-18T01:45:07.798Z,7.50
2022-10-18T01:47:37.009Z,7.25
2022-10-18T01:50:07.905Z,7.70
2022-10-18T01:52:36.369Z,7.75
2022-10-18T01:55:05.056Z,7.50
2022-10-18T01:57:37.447Z,7.65
2022-10-18T02:00:07.024Z,7.22
2022-10-18T02:02:45.808Z,8.00
2022-10-18T02:05:24.279Z,7.55
2022-10-18T02:08:05.896Z,8.10
2022-10-18T02:10:45.364Z,6.90
2022-10-18T02:13:15.071Z,8.23
2022-10-18T02:15:46.074Z,6.47
2022-10-18T02:18:17.689Z,7.20
2022-10-18T02:20:47.880Z,7.15
2022-10-18T02:23:16.921Z,7.35
2022-10-18T02:25:45.262Z,7.55
2022-10-18T02:28:13.831Z,7.32
2022-10-18T02:30:45.994Z,6.72
2022-10-18T02:33:15.470Z,6.93
2022-10-18T02:35:46.547Z,6.93
2022-10-18T02:38:17.342Z,7.55
2022-10-18T02:40:45.661Z,6.57
2022-10-18T02:43:15.741Z,6.75
2022-10-18T02:45:44.138Z,7.72
2022-10-18T02:48:12.537Z,6.50
2022-10-18T02:50:40.841Z,6.55
2022-10-18T02:53:09.145Z,6.63
2022-10-18T02:55:38.779Z,6.90
2022-10-18T02:58:07.077Z,6.45
2022-10-18T03:00:35.367Z,6.40
2022-10-18T03:03:03.655Z,6.93
2022-10-18T03:05:31.974Z,6.97
2022-10-18T03:08:00.286Z,6.88
2022-10-18T03:10:28.581Z,7.35
2022-10-18T03:12:58.237Z,6.20
2022-10-18T03:15:26.533Z,6.63
2022-10-18T03:17:54.853Z,7.20
2022-10-18T03:20:23.349Z,7.10
2022-10-18T03:22:51.994Z,7.18
2022-10-18T03:25:20.385Z,7.15
2022-10-18T03:27:48.949Z,6.85
2022-10-18T03:30:18.612Z,6.55
2022-10-18T03:32:46.900Z,8.00
2022-10-18T03:35:15.197Z,7.35
2022-10-18T03:37:43.522Z,7.57
2022-10-18T03:40:12.083Z,7.20
2022-10-18T03:42:40.450Z,7.60
2022-10-18T03:45:09.320Z,8.00
2022-10-18T03:47:38.984Z,9.20
2022-10-18T03:50:07.490Z,9.10
2022-10-18T03:52:35.880Z,9.90
2022-10-18T03:55:04.257Z,8.60
2022-10-18T03:57:32.553Z,9.40
2022-10-18T04:00:01.344Z,9.23
2022-10-18T04:02:29.991Z,8.02
2022-10-18T04:04:59.963Z,6.90
2022-10-18T04:07:28.396Z,5.65
2022-10-18T04:09:56.992Z,4.47
2022-10-18T04:12:25.381Z,4.28
2022-10-18T04:14:55.569Z,4.07
2022-10-18T04:17:24.064Z,4.05
2022-10-18T04:19:52.528Z,4.05
2022-10-18T04:22:22.170Z,4.38
2022-10-18T04:24:50.437Z,4.63
2022-10-18T04:27:18.709Z,5.13
2022-10-18T04:29:47.019Z,4.45
2022-10-18T04:32:15.322Z,5.10
2022-10-18T04:37:17.237Z,4.80
2022-10-18T04:39:51.237Z,4.80
2022-10-18T04:42:21.921Z,5.38
2022-10-18T04:44:50.256Z,4.65
2022-10-18T04:47:18.645Z,4.88
2022-10-18T04:49:46.978Z,5.65
2022-10-18T04:52:15.308Z,5.57
2022-10-18T04:54:43.850Z,4.80
2022-10-18T04:57:13.728Z,5.10
2022-10-18T04:59:42.319Z,4.72
2022-10-18T05:02:10.625Z,4.22
2022-10-18T05:04:38.938Z,4.35
2022-10-18T05:07:08.580Z,4.53
2022-10-18T05:09:36.905Z,4.47
2022-10-18T05:12:05.513Z,4.95
2022-10-18T05:14:35.188Z,5.20
2022-10-18T05:17:03.506Z,4.25
2022-10-18T05:19:31.822Z,4.60
2022-10-18T05:22:00.360Z,4.85
2022-10-18T05:24:28.833Z,4.65
2022-10-18T05:26:57.235Z,4.40
2022-10-18T05:29:25.615Z,4.72
2022-10-18T05:31:55.363Z,4.47
2022-10-18T05:34:24.700Z,4.63
2022-10-18T05:36:53.011Z,4.20
2022-10-18T05:39:21.358Z,4.25
2022-10-18T05:41:49.652Z,4.70
2022-10-18T05:44:17.948Z,3.88
2022-10-18T05:46:46.380Z,4.20
2022-10-18T05:49:16.503Z,3.97
2022-10-18T05:51:44.822Z,3.60
2022-10-18T05:54:13.237Z,3.63
2022-10-18T05:56:41.792Z,3.90
2022-10-18T05:59:12.118Z,3.42
2022-10-18T06:01:41.497Z,3.30
2022-10-18T06:04:10.968Z,3.13
2022-10-18T06:06:41.121Z,3.45
2022-10-18T06:09:09.486Z,3.50
2022-10-18T06:11:38.269Z,3.50
2022-10-18T06:14:06.644Z,3.70
2022-10-18T06:16:35.058Z,6.97
2022-10-18T06:19:03.362Z,5.30
2022-10-18T06:21:31.655Z,3.70
2022-10-18T06:24:01.450Z,18.48
2022-10-18T06:26:29.788Z,4.93
2022-10-18T06:28:58.147Z,5.65
2022-10-18T06:31:26.601Z,4.22
2022-10-18T06:33:55.146Z,3.40
2022-10-18T06:36:23.633Z,3.13
2022-10-18T06:38:52.317Z,2.97
2022-10-18T06:41:22.031Z,2.83
2022-10-18T06:43:50.889Z,3.20
2022-10-18T06:46:19.216Z,3.42
2022-10-18T06:48:47.785Z,3.40
2022-10-18T06:51:16.165Z,4.13
2022-10-18T06:53:59.190Z,3.30
2022-10-18T06:56:34.243Z,3.70
2022-10-18T06:59:02.716Z,2.70
2022-10-18T07:01:31.146Z,2.85
2022-10-18T07:03:59.653Z,3.47
2022-10-18T07:06:27.990Z,2.85
2022-10-18T07:08:57.012Z,2.90
2022-10-18T07:11:27.284Z,3.72
2022-10-18T07:14:03.006Z,2.90
2022-10-18T07:16:31.620Z,3.17
2022-10-18T07:19:00.037Z,3.47
2022-10-18T07:21:28.614Z,3.20
2022-10-18T07:23:57.895Z,9.48
2022-10-18T07:26:27.323Z,9.77
2022-10-18T07:28:58.142Z,3.38
2022-10-18T07:31:27.012Z,3.15
2022-10-18T07:33:55.441Z,3.38
2022-10-18T07:36:24.560Z,2.60
2022-10-18T07:38:53.208Z,3.13
2022-10-18T07:41:21.684Z,7.22
2022-10-18T07:43:50.831Z,5.70
2022-10-18T07:46:20.988Z,3.05
2022-10-18T07:48:49.485Z,2.67
2022-10-18T07:51:18.254Z,3.05
2022-10-18T07:53:46.889Z,3.38
2022-10-18T07:56:16.831Z,2.53
2022-10-18T07:58:46.172Z,2.35
2022-10-18T08:01:15.317Z,3.50
2022-10-18T08:03:45.395Z,2.40
2022-10-18T08:06:15.085Z,2.33
2022-10-18T08:08:43.789Z,2.40
2022-10-18T08:11:13.398Z,2.22
2022-10-18T08:13:41.790Z,2.17
2022-10-18T08:16:11.062Z,2.47
2022-10-18T08:18:39.612Z,2.90
2022-10-18T08:21:10.242Z,2.53
2022-10-18T08:23:38.910Z,2.10
2022-10-18T08:26:08.196Z,2.85
2022-10-18T08:28:37.411Z,2.97
2022-10-18T08:31:05.879Z,3.85
2022-10-18T08:33:35.726Z,3.60
2022-10-18T08:36:05.999Z,3.78
2022-10-18T08:38:36.653Z,3.70
2022-10-18T08:41:18.890Z,4.55
2022-10-18T08:43:48.929Z,4.63
2022-10-18T08:46:17.319Z,4.80
2022-10-18T08:48:47.596Z,4.47
2022-10-18T08:51:21.370Z,5.05
2022-10-18T08:53:53.526Z,5.60
2022-10-18T08:56:24.171Z,6.63
2022-10-18T08:58:52.564Z,6.47
2022-10-18T09:01:29.536Z,5.68
2022-10-18T09:04:07.312Z,6.10
2022-10-18T09:06:37.434Z,5.90
2022-10-18T09:09:23.775Z,5.85
2022-10-18T09:12:02.004Z,5.65
2022-10-18T09:14:44.300Z,5.35
2022-10-18T09:17:17.477Z,4.93
2022-10-18T09:19:56.806Z,4.70
2022-10-18T09:22:30.778Z,4.10
2022-10-18T09:25:04.745Z,3.95
2022-10-18T09:27:36.783Z,4.78
2022-10-18T09:30:11.510Z,4.80
2022-10-18T09:32:46.511Z,4.60
2022-10-18T09:35:16.855Z,4.10
2022-10-18T09:37:45.814Z,4.70
2022-10-18T09:40:19.011Z,5.13
2022-10-18T09:42:53.890Z,5.22
2022-10-18T09:45:25.699Z,4.93
2022-10-18T09:47:58.275Z,4.80
2022-10-18T09:50:29.262Z,3.75
2022-10-18T09:53:01.338Z,3.63
2022-10-18T09:55:33.850Z,2.97
2022-10-18T09:58:04.393Z,2.92
2022-10-18T10:00:35.547Z,2.75
2022-10-18T10:03:04.027Z,2.38
2022-10-18T10:05:32.392Z,2.20
2022-10-18T10:08:02.431Z,1.60
2022-10-18T10:10:31.864Z,3.50
2022-10-18T10:13:06.454Z,2.47
2022-10-18T10:15:38.149Z,3.17
2022-10-18T10:18:19.506Z,3.25
2022-10-18T10:20:49.269Z,2.10
2022-10-18T10:23:21.123Z,2.22
2022-10-18T10:25:52.276Z,1.83
2022-10-18T10:28:23.427Z,1.40
2022-10-18T10:30:52.147Z,2.47
2022-10-18T10:33:32.298Z,1.58
2022-10-18T10:36:01.292Z,1.25
2022-10-18T10:38:30.627Z,1.85
2022-10-18T10:40:59.621Z,1.88
2022-10-18T10:43:37.553Z,1.38
2022-10-18T10:46:09.017Z,1.45
2022-10-18T10:48:42.593Z,1.95
2022-10-18T10:51:12.237Z,1.38
2022-10-18T10:53:43.065Z,1.75
2022-10-18T10:56:17.200Z,3.10
2022-10-18T10:58:47.111Z,5.00
2022-10-18T11:01:20.476Z,1.58
2022-10-18T11:03:49.629Z,1.95
2022-10-18T11:06:37.066Z,1.92
2022-10-18T11:09:08.083Z,1.55
2022-10-18T11:11:37.941Z,4.00
2022-10-18T11:14:25.266Z,5.97
2022-10-18T11:16:57.772Z,1.35
2022-10-18T11:19:31.701Z,1.80
2022-10-18T11:22:01.263Z,1.63
2022-10-18T11:24:29.964Z,1.52
2022-10-18T11:27:00.502Z,1.85
2022-10-18T11:29:44.676Z,1.40
2022-10-18T11:32:16.866Z,1.05
2022-10-18T11:34:50.613Z,1.20
2022-10-18T11:37:31.097Z,1.50
2022-10-18T11:40:05.492Z,1.30
2022-10-18T11:42:39.937Z,1.30
2022-10-18T11:45:16.727Z,1.30
2022-10-18T11:47:52.293Z,1.20
2022-10-18T11:50:27.409Z,1.17
2022-10-18T11:53:00.629Z,1.23
2022-10-18T11:55:35.026Z,1.42
2022-10-18T11:58:07.477Z,3.00
2022-10-18T12:00:44.643Z,1.90
2022-10-18T12:03:24.182Z,6.32
2022-10-18T12:05:54.220Z,2.53
2022-10-18T12:08:25.162Z,2.10
2022-10-18T12:11:05.561Z,2.03
2022-10-18T12:13:36.683Z,1.30
2022-10-18T12:16:08.579Z,1.48
2022-10-18T12:18:37.993Z,1.58
2022-10-18T12:21:06.961Z,1.48
2022-10-18T12:23:38.430Z,1.80
2022-10-18T12:26:07.665Z,1.55
2022-10-18T12:28:40.481Z,1.52
2022-10-18T12:31:14.922Z,3.47
2022-10-18T12:33:45.912Z,1.50
2022-10-18T12:36:24.014Z,5.38
2022-10-18T12:38:54.513Z,1.77
2022-10-18T12:41:25.223Z,1.50
2022-10-18T12:43:54.069Z,0.85
2022-10-18T12:46:24.178Z,0.80
2022-10-18T12:49:03.170Z,0.80
2022-10-18T12:51:31.614Z,1.35
2022-10-18T12:54:11.211Z,0.80
2022-10-18T12:56:42.090Z,1.10
2022-10-18T12:59:35.506Z,0.90
2022-10-18T13:02:20.718Z,0.90
2022-10-18T13:04:49.352Z,0.70
2022-10-18T13:07:23.287Z,2.78
2022-10-18T13:10:09.612Z,0.80
2022-10-18T13:12:53.438Z,0.70
2022-10-18T13:15:31.046Z,0.93
2022-10-18T13:18:03.830Z,16.48
2022-10-18T13:20:38.507Z,3.20
2022-10-18T13:23:11.897Z,3.63
2022-10-18T13:25:49.199Z,2.50
2022-10-18T13:28:22.324Z,2.20
2022-10-18T13:30:54.867Z,0.52
2022-10-18T13:33:31.698Z,0.68
2022-10-18T13:36:00.725Z,1.08
2022-10-18T13:38:41.871Z,3.78
2022-10-18T13:41:11.708Z,2.22
2022-10-18T13:43:56.628Z,0.88
2022-10-18T13:46:26.170Z,0.77
2022-10-18T13:48:56.475Z,0.80
2022-10-18T13:51:33.746Z,0.82
2022-10-18T13:54:06.041Z,0.70
2022-10-18T13:56:46.957Z,0.80
2022-10-18T13:59:39.678Z,0.90
2022-10-18T14:02:50.411Z,1.00
2022-10-18T14:05:26.746Z,0.90
2022-10-18T14:07:59.800Z,1.20
2022-10-18T14:11:01.231Z,1.20
2022-10-18T14:13:35.535Z,1.55
2022-10-18T14:16:07.657Z,1.63
2022-10-18T14:18:38.220Z,1.95
2022-10-18T14:21:13.970Z,1.80
2022-10-18T14:23:45.447Z,1.10
2022-10-18T14:26:15.357Z,1.20
2022-10-18T14:29:00.300Z,1.25
2022-10-18T14:31:29.348Z,1.10
2022-10-18T14:33:58.972Z,1.50
2022-10-18T14:36:30.970Z,1.20
2022-10-18T14:39:00.275Z,1.20
2022-10-18T14:41:29.930Z,1.17
2022-10-18T14:44:13.265Z,1.23
2022-10-18T14:46:44.242Z,1.63
2022-10-18T14:49:13.440Z,1.30
2022-10-18T14:51:44.184Z,1.10
2022-10-18T14:54:16.204Z,1.27
2022-10-18T14:56:45.002Z,1.30
2022-10-18T14:59:14.886Z,1.15
2022-10-18T15:01:52.376Z,1.35
2022-10-18T15:04:24.728Z,0.95
2022-10-18T15:06:56.190Z,1.00
2022-10-18T15:09:25.306Z,1.10
2022-10-18T15:11:55.266Z,1.17
2022-10-18T15:14:23.736Z,1.10
2022-10-18T15:16:53.894Z,1.17
2022-10-18T15:19:32.910Z,1.30
2022-10-18T15:22:33.474Z,1.17
2022-10-18T15:25:08.099Z,1.10
2022-10-18T15:27:37.812Z,1.00
2022-10-18T15:30:09.129Z,1.15
2022-10-18T15:32:37.844Z,0.90
2022-10-18T15:35:09.981Z,1.20
2022-10-18T15:37:41.578Z,0.95
2022-10-18T15:40:21.076Z,1.00
2022-10-18T15:42:49.844Z,1.30
2022-10-18T15:45:38.537Z,1.67
2022-10-18T15:48:21.440Z,2.38
2022-10-18T15:50:50.588Z,1.30
2022-10-18T15:53:32.550Z,1.33
2022-10-18T15:56:02.445Z,1.10
2022-10-18T15:58:33.209Z,1.17
2022-10-18T16:01:04.321Z,1.20
2022-10-18T16:03:34.715Z,1.17
2022-10-18T16:06:05.927Z,1.20
2022-10-18T16:08:40.574Z,1.23
2022-10-18T16:11:09.373Z,1.20
2022-10-18T16:13:37.872Z,1.10
2022-10-18T16:16:06.471Z,1.10
2022-10-18T16:18:35.256Z,1.00
2022-10-18T16:21:03.603Z,1.25
2022-10-18T16:23:31.926Z,1.40
2022-10-18T16:26:01.564Z,1.35
2022-10-18T16:28:31.742Z,0.90
2022-10-18T16:31:01.164Z,0.93
2022-10-18T16:33:29.542Z,1.30
2022-10-18T16:35:58.504Z,1.20
2022-10-18T16:38:32.882Z,1.10
2022-10-18T16:41:05.526Z,1.50
2022-10-18T16:43:34.614Z,1.30
2022-10-18T16:46:03.233Z,1.35
2022-10-18T16:48:31.572Z,1.50
2022-10-18T16:51:00.345Z,1.30
2022-10-18T16:53:28.706Z,1.30
2022-10-18T16:55:59.008Z,1.23
2022-10-18T16:58:29.133Z,1.20
2022-10-18T17:00:57.953Z,1.27
2022-10-18T17:03:26.786Z,1.40
2022-10-18T17:05:56.197Z,1.52
2022-10-18T17:08:25.954Z,1.30
2022-10-18T17:10:55.525Z,1.55
2022-10-18T17:13:24.602Z,1.80
2022-10-18T17:15:54.556Z,2.33
2022-10-18T17:18:26.254Z,2.00
2022-10-18T17:20:54.663Z,1.98
2022-10-18T17:23:22.985Z,1.75
2022-10-18T17:26:05.129Z,1.80
2022-10-18T17:28:42.402Z,2.20
2022-10-18T17:31:12.133Z,2.00
2022-10-18T17:33:40.459Z,2.28
2022-10-18T17:36:08.761Z,2.13
2022-10-18T17:38:37.198Z,2.10
2022-10-18T17:41:07.504Z,2.53
2022-10-18T17:43:35.960Z,2.05
2022-10-18T17:46:04.338Z,2.30
2022-10-18T17:48:34.423Z,2.20
2022-10-18T17:51:07.443Z,2.53
2022-10-18T17:53:36.115Z,2.38
2022-10-18T17:56:05.032Z,2.90
2022-10-18T17:58:33.693Z,2.90
2022-10-18T18:01:09.902Z,2.95
2022-10-18T18:03:40.947Z,2.63
2022-10-18T18:06:16.775Z,2.38
2022-10-18T18:08:45.443Z,2.72
2022-10-18T18:11:13.787Z,2.90
2022-10-18T18:13:42.455Z,2.78
2022-10-18T18:16:11.788Z,3.10
2022-10-18T18:18:41.454Z,3.50
2022-10-18T18:21:09.830Z,3.05
2022-10-18T18:23:38.576Z,3.40
2022-10-18T18:26:07.213Z,2.90
2022-10-18T18:28:35.930Z,3.50
2022-10-18T18:31:06.854Z,3.10
2022-10-18T18:33:35.361Z,3.60
2022-10-18T18:36:06.587Z,3.15
2022-10-18T18:38:35.254Z,3.33
2022-10-18T18:41:04.661Z,4.43
2022-10-18T18:43:32.996Z,3.90
2022-10-18T18:46:02.316Z,3.53
2022-10-18T18:48:30.786Z,3.88
2022-10-18T18:50:59.105Z,3.40
2022-10-18T18:53:29.745Z,3.35
2022-10-18T18:56:02.584Z,3.15
2022-10-18T18:58:30.907Z,3.50
2022-10-18T19:00:59.355Z,3.50
2022-10-18T19:03:27.723Z,3.22
2022-10-18T19:06:03.573Z,3.45
2022-10-18T19:08:33.249Z,3.28
2022-10-18T19:11:01.591Z,3.72
2022-10-18T19:13:30.159Z,3.47
2022-10-18T19:16:13.364Z,4.43
2022-10-18T19:18:41.681Z,4.15
2022-10-18T19:21:09.985Z,3.80
2022-10-18T19:23:39.970Z,4.18
2022-10-18T19:26:11.983Z,4.38
2022-10-18T19:28:40.568Z,4.03
2022-10-18T19:31:10.243Z,4.10
2022-10-18T19:33:48.451Z,4.45
2022-10-18T19:36:17.147Z,4.90
2022-10-18T19:38:46.793Z,4.63
2022-10-18T19:41:15.259Z,4.78
2022-10-18T19:43:43.695Z,4.82
2022-10-18T19:46:12.255Z,4.72
2022-10-18T19:48:40.595Z,4.68
2022-10-18T19:51:09.823Z,5.20
2022-10-18T19:53:39.272Z,5.03
2022-10-18T19:56:16.529Z,5.07
2022-10-18T19:58:44.873Z,4.60
2022-10-18T20:01:13.308Z,5.25
2022-10-18T20:03:41.715Z,5.10
2022-10-18T20:06:10.096Z,4.90
2022-10-18T20:08:38.994Z,4.78
2022-10-18T20:11:09.752Z,5.05
2022-10-18T20:13:38.235Z,5.40
2022-10-18T20:16:08.725Z,6.53
2022-10-18T20:18:37.136Z,6.57
2022-10-18T20:21:06.615Z,6.63
2022-10-18T20:23:36.742Z,6.72
2022-10-18T20:26:06.082Z,7.53
2022-10-18T20:28:36.020Z,7.45
2022-10-18T20:31:05.179Z,7.43
2022-10-18T20:33:34.206Z,7.60
2022-10-18T20:36:06.909Z,7.78
2022-10-18T20:38:35.765Z,7.05
2022-10-18T20:41:05.346Z,8.05
2022-10-18T20:43:33.740Z,7.30
2022-10-18T20:46:03.951Z,7.65
2022-10-18T20:48:33.009Z,7.95
2022-10-18T20:51:04.541Z,10.15
2022-10-18T20:53:32.864Z,10.25
2022-10-18T20:56:05.575Z,9.95
2022-10-18T20:58:34.915Z,8.23
2022-10-18T21:01:10.731Z,8.82
2022-10-18T21:03:39.572Z,8.35
2022-10-18T21:06:11.473Z,7.50
2022-10-18T21:08:41.410Z,8.35
2022-10-18T21:11:11.144Z,8.02
2022-10-18T21:13:40.758Z,9.63
2022-10-18T21:16:10.697Z,9.77
2022-10-18T21:18:40.425Z,10.23
2022-10-18T21:21:09.980Z,9.80
2022-10-18T21:23:38.447Z,9.30
2022-10-18T21:26:07.205Z,9.50
2022-10-18T21:28:35.597Z,8.05
2022-10-18T21:31:13.335Z,8.07
2022-10-18T21:33:41.727Z,8.30
2022-10-18T21:36:10.249Z,8.27
2022-10-18T21:38:38.844Z,8.63
2022-10-18T21:41:10.886Z,9.18
2022-10-18T21:43:41.092Z,8.00
2022-10-18T21:46:09.985Z,8.50
2022-10-18T21:48:45.562Z,7.70
2022-10-18T21:51:15.702Z,7.68
2022-10-18T21:53:44.938Z,7.93
2022-10-18T21:56:14.566Z,8.05
2022-10-18T21:58:45.212Z,7.85
2022-10-18T22:01:15.297Z,7.95
2022-10-18T22:03:46.069Z,7.40
2022-10-18T22:06:16.359Z,7.85
2022-10-18T22:08:45.811Z,9.18
2022-10-18T22:11:14.663Z,8.60
2022-10-18T22:13:43.491Z,9.55
2022-10-18T22:16:14.198Z,10.10
2022-10-18T22:18:42.798Z,12.20
2022-10-18T22:21:13.266Z,10.77
2022-10-18T22:23:42.545Z,9.85
2022-10-18T22:26:12.114Z,9.93
2022-10-18T22:28:41.164Z,12.13
2022-10-18T22:31:18.121Z,10.50
2022-10-18T22:33:47.794Z,11.88
2022-10-18T22:36:17.415Z,11.32
2022-10-18T22:38:45.735Z,10.68
2022-10-18T22:41:14.045Z,10.15
2022-10-18T22:43:42.536Z,9.65
2022-10-18T22:46:11.767Z,10.30
2022-10-18T22:48:40.489Z,9.90
2022-10-18T22:51:09.137Z,9.73
2022-10-18T22:53:39.059Z,10.00
2022-10-18T22:56:07.953Z,9.77
2022-10-18T22:58:36.305Z,9.60
2022-10-18T23:01:05.363Z,10.02
2022-10-18T23:03:33.783Z,10.77
2022-10-18T23:06:02.542Z,10.48
2022-10-18T23:08:30.876Z,9.70
2022-10-18T23:11:01.353Z,10.32
2022-10-18T23:13:29.745Z,10.00
2022-10-18T23:16:04.461Z,10.68
2022-10-18T23:18:33.412Z,10.80
2022-10-18T23:21:02.644Z,11.20
2022-10-18T23:23:31.519Z,10.00
2022-10-18T23:26:01.142Z,9.73
2022-10-18T23:28:29.501Z,10.73
2022-10-18T23:30:57.832Z,10.73
2022-10-18T23:33:26.152Z,10.65
2022-10-18T23:35:54.447Z,12.02
2022-10-18T23:38:22.752Z,11.57
2022-10-18T23:40:51.087Z,10.85
2022-10-18T23:43:20.733Z,10.38
2022-10-18T23:45:49.091Z,11.18
2022-10-18T23:48:17.455Z,11.57
2022-10-18T23:50:46.023Z,11.75
2022-10-18T23:53:14.340Z,11.30
2022-10-18T23:55:50.419Z,11.10
2022-10-18T23:58:18.726Z,12.18
